Time;durP1;ratioP1;P1;durP2;ratioP2;P2;SDS_P1;SDS_P2;PMS_P1;PMS_P2;Temp;Humidity;BMP_temperature;BMP_pressure;BME280_temperature;BME280_humidity;BME280_pressure;Samples;Min_cycle;Max_cycle;Signal;HPM_P1;HPM_P2
2022/11/07 00:00:29;;;;;;;9.55;2.67;;;11.60;99.90;;;;;;6175700;23;20028;-92
2022/11/07 00:03:01;;;;;;;6.10;2.63;;;11.60;99.90;;;;;;6205885;23;20004;-94
2022/11/07 00:05:53;;;;;;;6.78;2.78;;;11.70;99.90;;;;;;6204092;23;20050;-94
2022/11/07 00:08:30;;;;;;;7.10;2.63;;;11.70;99.90;;;;;;6216842;23;20035;-95
2022/11/07 00:11:04;;;;;;;6.72;2.85;;;11.70;99.90;;;;;;6176264;23;20028;-96
2022/11/07 00:13:33;;;;;;;7.03;2.60;;;11.70;99.90;;;;;;6195539;23;20001;-95
2022/11/07 00:19:07;;;;;;;11.00;4.05;;;11.70;99.90;;;;;;6234339;23;20015;-95
2022/11/07 00:21:37;;;;;;;6.78;2.60;;;11.70;99.90;;;;;;6223881;23;20023;-93
2022/11/07 00:24:06;;;;;;;7.18;2.70;;;11.70;99.90;;;;;;6222566;23;20433;-94
2022/11/07 00:26:31;;;;;;;9.25;2.53;;;11.70;99.90;;;;;;6222021;23;20079;-94
2022/11/07 00:29:18;;;;;;;8.73;2.78;;;11.70;99.90;;;;;;6221284;23;20079;-93
2022/11/07 00:32:21;;;;;;;9.18;3.10;;;11.70;99.90;;;;;;6222746;23;20001;-94
2022/11/07 00:34:59;;;;;;;8.93;2.75;;;11.70;99.90;;;;;;6222161;23;19996;-95
2022/11/07 00:37:35;;;;;;;11.35;3.03;;;11.70;99.90;;;;;;6222683;23;20007;-93
2022/11/07 00:40:08;;;;;;;8.18;2.60;;;11.70;99.90;;;;;;6199278;23;20394;-96
2022/11/07 00:42:34;;;;;;;8.57;2.90;;;11.70;99.90;;;;;;6199607;23;20477;-95
2022/11/07 00:45:12;;;;;;;;;;;;;;;;;;;;;
2022/11/07 00:50:29;;;;;;;8.93;2.50;;;11.80;99.90;;;;;;6258954;23;20008;-96
2022/11/07 00:53:16;;;;;;;;;;;;;;;;;;;;;
2022/11/07 00:55:48;;;;;;;10.30;2.60;;;11.80;99.90;;;;;;6261715;23;19996;-94
2022/11/07 00:58:17;;;;;;;;;;;11.80;99.90;;;;;;6226759;23;20000;-93
2022/11/07 01:00:47;;;;;;;7.40;2.67;;;11.80;99.90;;;;;;6252058;23;20309;-96
2022/11/07 01:06:09;;;;;;;10.20;2.60;;;11.80;99.90;;;;;;6251703;23;20027;-94
2022/11/07 01:08:48;;;;;;;;;;;;;;;;;;;;;
2022/11/07 01:11:14;;;;;;;9.68;2.50;;;11.80;99.90;;;;;;6252385;23;20469;-93
2022/11/07 01:13:43;;;;;;;8.93;2.45;;;11.80;99.90;;;;;;6225048;23;20000;-95
2022/11/07 01:16:40;;;;;;;;;;;;;;;;;;;;;
2022/11/07 01:19:03;;;;;;;8.18;3.15;;;11.80;99.90;;;;;;6214177;23;20492;-94
2022/11/07 01:21:32;;;;;;;7.68;2.78;;;11.80;99.90;;;;;;6195629;23;20095;-95
2022/11/07 01:24:02;;;;;;;7.63;2.40;;;11.90;99.90;;;;;;6194922;23;19996;-92
2022/11/07 01:29:25;;;;;;;9.40;2.17;;;11.90;99.90;;;;;;6200245;23;20382;-95
2022/11/07 01:32:20;;;;;;;11.02;2.38;;;11.90;99.90;;;;;;6194045;23;19996;-94
2022/11/07 01:34:45;;;;;;;9.30;2.60;;;11.90;99.90;;;;;;6196031;23;20001;-96
2022/11/07 01:37:26;;;;;;;11.27;2.85;;;11.90;99.90;;;;;;6194233;23;19996;-94
2022/11/07 01:39:59;;;;;;;6.85;2.85;;;11.90;99.90;;;;;;6197795;23;20019;-95
2022/11/07 01:42:28;;;;;;;11.88;2.70;;;11.90;99.90;;;;;;6196798;23;20011;-93
2022/11/07 01:44:59;;;;;;;9.40;3.08;;;11.90;99.90;;;;;;6196934;23;20095;-96
2022/11/07 01:47:50;;;;;;;;;;;;;;;;;;;;;
2022/11/07 01:50:28;;;;;;;10.88;3.60;;;11.90;99.90;;;;;;6222856;23;20040;-96
2022/11/07 01:52:55;;;;;;;11.95;2.20;;;11.90;99.90;;;;;;6195535;23;20005;-94
2022/11/07 01:55:31;;;;;;;9.18;2.85;;;11.90;99.90;;;;;;6221951;23;20020;-92
2022/11/07 01:57:59;;;;;;;11.18;2.65;;;11.90;99.90;;;;;;6221864;23;19996;-92
2022/11/07 02:00:26;;;;;;;8.55;2.30;;;11.90;99.90;;;;;;6194557;23;20005;-94
2022/11/07 02:03:01;;;;;;;9.25;2.58;;;11.90;99.90;;;;;;6193447;23;20000;-93
2022/11/07 02:05:56;;;;;;;6.75;2.30;;;11.90;99.90;;;;;;6194464;23;19997;-94
2022/11/07 02:08:29;;;;;;;8.00;2.85;;;11.90;99.90;;;;;;6195556;23;20007;-94
2022/11/07 02:10:58;;;;;;;9.38;2.20;;;11.80;99.90;;;;;;6195017;23;20073;-92
2022/11/07 02:13:44;;;;;;;6.63;2.40;;;11.90;99.90;;;;;;6195717;23;20000;-95
2022/11/07 02:16:20;;;;;;;10.80;2.78;;;11.80;99.90;;;;;;6215111;23;20019;-94
2022/11/07 02:19:26;;;;;;;9.88;2.90;;;11.80;99.90;;;;;;6224078;23;20012;-94
2022/11/07 02:22:24;;;;;;;9.15;2.40;;;11.80;99.90;;;;;;6222694;23;20502;-93
2022/11/07 02:25:13;;;;;;;8.63;2.30;;;11.80;99.90;;;;;;6224447;23;20326;-92
2022/11/07 02:27:44;;;;;;;8.65;3.28;;;11.80;99.90;;;;;;6235144;23;20060;-92
2022/11/07 02:30:21;;;;;;;10.20;2.75;;;11.80;99.90;;;;;;6246900;23;20012;-93
2022/11/07 02:32:50;;;;;;;9.82;2.88;;;11.80;99.90;;;;;;6247114;23;20011;-93
2022/11/07 02:35:45;;;;;;;6.72;2.30;;;11.80;99.90;;;;;;6245688;23;20411;-91
2022/11/07 02:38:19;;;;;;;13.02;2.58;;;11.80;99.90;;;;;;6246810;23;19995;-93
2022/11/07 02:41:06;;;;;;;8.90;2.63;;;11.80;99.90;;;;;;6236488;23;20012;-93
2022/11/07 02:43:36;;;;;;;8.23;2.75;;;11.80;99.90;;;;;;6225490;23;20004;-93
2022/11/07 02:46:06;;;;;;;11.80;3.13;;;11.80;99.90;;;;;;6249586;23;20054;-93
2022/11/07 02:48:44;;;;;;;11.20;3.45;;;11.80;99.90;;;;;;6223047;23;20035;-93
2022/11/07 02:51:10;;;;;;;9.68;2.67;;;11.80;99.90;;;;;;6222368;23;20007;-92
2022/11/07 02:54:13;;;;;;;11.60;2.88;;;11.80;99.90;;;;;;6224140;23;20004;-93
2022/11/07 02:56:48;;;;;;;5.22;2.28;;;11.80;99.90;;;;;;6209201;23;20003;-94
2022/11/07 03:00:04;;;;;;;;;;;;;;;;;;;;;
2022/11/07 03:02:38;;;;;;;6.95;2.42;;;11.80;99.90;;;;;;6251930;23;20028;-93
2022/11/07 03:05:06;;;;;;;8.25;3.08;;;11.80;99.90;;;;;;6224396;23;20000;-94
2022/11/07 03:07:50;;;;;;;8.98;2.60;;;11.80;99.90;;;;;;6225112;23;20003;-96
2022/11/07 03:10:19;;;;;;;8.75;2.63;;;11.80;99.90;;;;;;6202469;23;20069;-95
2022/11/07 03:12:45;;;;;;;9.13;3.05;;;11.80;99.90;;;;;;6224951;23;20000;-95
2022/11/07 03:15:18;;;;;;;8.65;2.50;;;11.80;99.90;;;;;;6215043;23;20099;-95
2022/11/07 10:06:17;;;;;;;;;;;;;;;;;;;;;
2022/11/07 10:19:20;;;;;;;10.00;2.25;;;14.20;99.90;;;;;;6099058;23;20011;-94
2022/11/07 10:23:21;;;;;;;;;;;;;;;;;;;;;
2022/11/07 10:26:23;;;;;;;14.95;3.22;;;14.30;99.90;;;;;;6091459;23;20011;-95
2022/11/07 10:29:43;;;;;;;14.50;2.67;;;14.30;99.90;;;;;;6078175;23;20013;-96
2022/11/07 10:32:15;;;;;;;16.40;2.60;;;14.30;99.90;;;;;;6096859;23;20046;-93
2022/11/07 10:35:13;;;;;;;;;;;;;;;;;;;;;
2022/11/07 11:12:05;;;;;;;;;;;;;;;;;;;;;
2022/11/07 11:18:24;;;;;;;12.65;2.88;;;14.60;99.90;;;;;;6052325;23;20007;-90
2022/11/07 11:21:57;;;;;;;;;;;;;;;;;;;;;
2022/11/07 11:24:31;;;;;;;14.57;2.50;;;14.60;99.90;;;;;;6198761;23;20008;-94
2022/11/07 11:27:39;;;;;;;;;;;;;;;;;;;;;
2022/11/07 11:30:44;;;;;;;11.93;2.80;;;14.70;99.90;;;;;;6226266;23;20090;-94
2022/11/07 11:34:09;;;;;;;12.95;2.72;;;14.70;99.90;;;;;;6195175;23;20004;-95
2022/11/07 11:37:23;;;;;;;;;;;;;;;;;;;;;
2022/11/07 14:48:49;;;;;;;7.75;2.20;;;15.60;99.90;;;;;;6198890;23;20025;-83
2022/11/07 14:51:20;;;;;;;20.73;3.10;;;15.60;99.90;;;;;;6160710;23;20017;-83
2022/11/07 14:53:45;;;;;;;;;;;15.60;99.90;;;;;;6160717;23;20016;-83
2022/11/07 14:56:16;;;;;;;9.73;2.08;;;15.60;99.90;;;;;;6186777;23;19900;-83
2022/11/07 14:58:41;;;;;;;8.27;2.08;;;15.60;99.90;;;;;;6185172;23;20001;-83
2022/11/07 15:01:07;;;;;;;16.77;2.83;;;15.60;99.90;;;;;;6135380;23;20036;-82
2022/11/07 15:03:35;;;;;;;9.82;2.15;;;15.60;99.90;;;;;;6186417;23;20001;-83
2022/11/07 15:06:04;;;;;;;13.85;2.45;;;15.60;99.90;;;;;;6184731;23;20028;-83
2022/11/07 15:08:33;;;;;;;9.43;2.45;;;15.60;99.90;;;;;;6159959;23;20080;-83
2022/11/07 15:11:01;;;;;;;14.13;2.30;;;15.60;99.90;;;;;;6186025;23;20422;-83
2022/11/07 15:13:36;;;;;;;10.02;2.65;;;15.60;99.90;;;;;;6184595;23;20005;-83
2022/11/07 15:19:32;;;;;;;9.43;2.30;;;15.60;99.90;;;;;;6186665;23;20363;-83
2022/11/07 15:22:02;;;;;;;13.52;2.70;;;15.60;99.90;;;;;;6186315;23;20040;-83
2022/11/07 15:24:45;;;;;;;12.75;2.83;;;15.60;99.90;;;;;;6183285;23;20088;-83
2022/11/07 15:27:27;;;;;;;12.48;2.92;;;15.60;99.90;;;;;;6183410;23;20009;-82
2022/11/07 15:30:00;;;;;;;15.10;3.55;;;15.60;99.90;;;;;;6158579;23;20032;-83
2022/11/07 15:32:40;;;;;;;8.52;2.08;;;15.60;99.90;;;;;;6184586;23;20033;-82
2022/11/07 15:35:18;;;;;;;10.50;2.30;;;15.60;99.90;;;;;;6183710;23;20366;-82
2022/11/07 15:37:56;;;;;;;5.55;1.80;;;15.60;99.90;;;;;;6199992;23;20325;-81
2022/11/07 15:40:23;;;;;;;12.40;2.55;;;15.60;99.90;;;;;;6214022;23;20070;-83
2022/11/07 15:42:48;;;;;;;9.13;2.22;;;15.60;99.90;;;;;;6163831;23;20482;-82
2022/11/07 15:45:16;;;;;;;7.82;2.22;;;15.60;99.90;;;;;;6165079;23;20004;-82
2022/11/07 15:47:41;;;;;;;14.70;2.20;;;15.60;99.90;;;;;;6215931;23;20020;-82
2022/11/07 15:50:23;;;;;;;10.15;2.38;;;15.60;99.90;;;;;;6189332;23;20008;-82
2022/11/07 15:52:49;;;;;;;8.10;2.20;;;15.60;99.90;;;;;;6189487;23;20003;-82
2022/11/07 15:55:21;;;;;;;10.80;1.95;;;15.60;99.90;;;;;;6164660;23;20004;-84
2022/11/07 15:57:50;;;;;;;10.55;2.63;;;15.60;99.90;;;;;;6215419;23;20430;-84
2022/11/07 16:00:19;;;;;;;10.63;2.47;;;15.60;99.90;;;;;;6188955;23;20012;-83
2022/11/07 16:02:45;;;;;;;10.88;2.63;;;15.60;99.90;;;;;;6188868;23;20008;-84
2022/11/07 16:05:12;;;;;;;9.27;2.35;;;15.60;99.90;;;;;;6215219;23;20020;-83
2022/11/07 16:07:40;;;;;;;14.35;2.20;;;15.60;99.90;;;;;;6189092;23;19997;-84
2022/11/07 16:10:20;;;;;;;10.88;2.05;;;15.60;99.90;;;;;;6189035;23;20011;-83
2022/11/07 16:12:47;;;;;;;14.27;4.25;;;15.60;99.90;;;;;;6215647;23;19996;-84
2022/11/07 16:15:15;;;;;;;8.68;2.00;;;15.60;99.90;;;;;;6215659;23;20004;-83
2022/11/07 16:17:41;;;;;;;14.27;2.72;;;15.60;99.90;;;;;;6189698;23;20012;-83
2022/11/07 16:20:16;;;;;;;10.05;2.20;;;15.60;99.90;;;;;;6164174;23;20309;-83
2022/11/07 16:22:46;;;;;;;11.45;2.30;;;15.60;99.90;;;;;;6215688;23;20100;-84
2022/11/07 16:25:14;;;;;;;12.43;2.67;;;15.60;99.90;;;;;;6166560;23;20035;-83
2022/11/07 16:27:46;;;;;;;10.38;2.25;;;15.50;99.90;;;;;;6191143;23;20379;-80
2022/11/07 16:30:14;;;;;;;10.20;2.58;;;15.60;99.90;;;;;;6191516;23;20092;-79
2022/11/07 16:32:40;;;;;;;10.02;1.88;;;15.50;99.90;;;;;;6217717;23;20000;-80
2022/11/07 16:35:12;;;;;;;12.75;2.40;;;15.50;99.90;;;;;;6191168;23;20058;-80
2022/11/07 16:37:38;;;;;;;10.38;2.08;;;15.50;99.90;;;;;;6190964;23;20016;-81
2022/11/07 16:40:07;;;;;;;9.98;1.92;;;15.50;99.90;;;;;;6191078;23;20004;-80
2022/11/07 16:42:34;;;;;;;9.90;2.50;;;15.50;99.90;;;;;;6191053;23;20000;-80
2022/11/07 16:44:59;;;;;;;11.18;2.40;;;15.50;99.90;;;;;;6202239;23;20004;-82
2022/11/07 16:47:25;;;;;;;11.82;3.17;;;15.40;99.90;;;;;;6204817;23;20011;-82
2022/11/07 16:49:51;;;;;;;12.02;3.08;;;15.40;99.90;;;;;;6179158;23;20016;-82
2022/11/07 16:52:18;;;;;;;13.48;3.60;;;15.40;99.90;;;;;;6206790;23;20051;-82
2022/11/07 16:54:44;;;;;;;17.05;2.90;;;15.40;99.90;;;;;;6206936;23;20008;-82
2022/11/07 16:57:15;;;;;;;14.30;2.35;;;15.40;99.90;;;;;;6209648;23;20024;-82
2022/11/07 16:59:45;;;;;;;13.43;2.45;;;15.40;99.90;;;;;;6235027;23;20004;-85
2022/11/07 17:02:17;;;;;;;12.70;2.53;;;15.40;99.90;;;;;;6191142;23;20000;-83
2022/11/07 17:04:43;;;;;;;13.32;2.88;;;15.30;99.90;;;;;;6192229;23;19996;-80
2022/11/07 17:07:13;;;;;;;13.48;2.67;;;15.30;99.90;;;;;;6190908;23;20008;-80
2022/11/07 17:09:40;;;;;;;11.48;2.15;;;15.30;99.90;;;;;;6190804;23;20092;-80
2022/11/07 17:12:32;;;;;;;10.82;2.78;;;15.30;99.90;;;;;;6191261;23;20010;-81
2022/11/07 17:14:58;;;;;;;15.20;3.50;;;15.30;99.90;;;;;;6184411;23;20019;-80
2022/11/07 17:17:23;;;;;;;9.20;1.73;;;15.30;99.90;;;;;;6166052;23;20339;-83
2022/11/07 17:19:49;;;;;;;12.07;2.88;;;15.30;99.90;;;;;;6166620;23;20019;-82
2022/11/07 17:22:16;;;;;;;11.30;2.70;;;15.40;99.90;;;;;;6170306;23;20008;-82
2022/11/07 17:24:42;;;;;;;12.27;2.85;;;15.30;99.90;;;;;;6193008;23;20058;-82
2022/11/07 17:27:24;;;;;;;9.77;2.20;;;15.30;99.90;;;;;;6167623;23;20076;-83
2022/11/07 17:29:52;;;;;;;14.20;2.40;;;15.40;99.90;;;;;;6193687;23;19996;-83
2022/11/07 17:32:18;;;;;;;12.85;2.35;;;15.40;99.90;;;;;;6199417;23;20004;-83
2022/11/07 17:34:44;;;;;;;10.27;2.38;;;15.40;99.90;;;;;;6195816;23;20021;-82
2022/11/07 17:37:18;;;;;;;11.73;2.72;;;15.40;99.90;;;;;;6192253;23;20008;-83
2022/11/07 17:39:46;;;;;;;12.98;2.55;;;15.40;99.90;;;;;;6221708;23;20031;-84
2022/11/07 17:42:12;;;;;;;10.80;2.80;;;15.40;99.90;;;;;;6195252;23;20472;-83
2022/11/07 17:44:39;;;;;;;11.27;2.20;;;15.40;99.90;;;;;;6221342;23;20004;-84
2022/11/07 17:47:05;;;;;;;10.25;2.20;;;15.40;99.90;;;;;;6195373;23;20008;-84
2022/11/07 17:49:31;;;;;;;12.00;2.88;;;15.40;99.90;;;;;;6169615;23;20015;-85
2022/11/07 17:52:15;;;;;;;13.32;4.22;;;15.40;99.90;;;;;;6220945;23;20036;-84
2022/11/07 17:54:41;;;;;;;11.20;2.38;;;15.50;99.90;;;;;;6221197;23;20001;-84
2022/11/07 17:57:07;;;;;;;10.73;2.67;;;15.50;99.90;;;;;;6169670;23;20086;-84
2022/11/07 17:59:33;;;;;;;10.18;2.55;;;15.50;99.90;;;;;;6194624;23;20054;-84
2022/11/07 18:01:59;;;;;;;11.20;2.40;;;15.50;99.90;;;;;;6197177;23;20013;-84
2022/11/07 18:04:24;;;;;;;14.65;2.38;;;15.50;99.90;;;;;;6170680;23;20103;-83
2022/11/07 18:06:50;;;;;;;12.07;2.28;;;15.50;99.90;;;;;;6170445;23;20424;-81
2022/11/07 18:09:16;;;;;;;8.35;2.70;;;15.50;99.90;;;;;;6172071;23;20043;-82
2022/11/07 18:11:42;;;;;;;8.65;2.92;;;15.50;99.90;;;;;;6170865;23;20008;-82
2022/11/07 18:14:10;;;;;;;11.98;2.47;;;15.50;99.90;;;;;;6195879;23;20008;-82
2022/11/07 18:16:36;;;;;;;9.65;2.08;;;15.50;99.90;;;;;;6194662;23;20012;-82
2022/11/07 18:19:04;;;;;;;10.38;2.33;;;15.50;99.90;;;;;;6195508;23;20127;-82
2022/11/07 18:21:30;;;;;;;10.13;2.28;;;15.50;99.90;;;;;;6221767;23;20001;-82
2022/11/07 18:23:56;;;;;;;10.23;2.90;;;15.50;99.90;;;;;;6222943;23;20052;-84
2022/11/07 18:26:25;;;;;;;10.38;2.08;;;15.50;99.90;;;;;;6193576;23;20001;-84
2022/11/07 18:28:52;;;;;;;11.68;3.45;;;15.50;99.90;;;;;;6193892;23;20367;-85
2022/11/07 18:31:21;;;;;;;8.05;2.30;;;15.50;99.90;;;;;;6194761;23;20009;-84
2022/11/07 18:33:47;;;;;;;11.77;2.55;;;15.40;99.90;;;;;;6193978;23;20057;-84
2022/11/07 18:36:16;;;;;;;10.07;2.13;;;15.50;99.90;;;;;;6194059;23;20029;-85
2022/11/07 18:38:43;;;;;;;10.90;2.10;;;15.50;99.90;;;;;;6220118;23;20017;-85
2022/11/07 18:41:19;;;;;;;10.65;2.00;;;15.50;99.90;;;;;;6169170;23;20332;-84
2022/11/07 18:43:45;;;;;;;5.93;1.90;;;15.50;99.90;;;;;;6192932;23;19997;-84
2022/11/07 18:46:14;;;;;;;9.82;2.30;;;15.50;99.90;;;;;;6167960;23;20038;-85
2022/11/07 18:48:40;;;;;;;9.45;2.05;;;15.50;99.90;;;;;;6192676;23;20001;-84
2022/11/07 18:51:13;;;;;;;11.57;2.10;;;15.50;99.90;;;;;;6218964;23;20055;-85
2022/11/07 18:53:41;;;;;;;11.02;2.78;;;15.50;99.90;;;;;;6219796;23;20007;-84
2022/11/07 18:56:08;;;;;;;9.55;1.83;;;15.50;99.90;;;;;;6191722;23;20310;-85
2022/11/07 18:58:35;;;;;;;11.38;2.90;;;15.40;99.90;;;;;;6190630;23;20419;-83
2022/11/07 19:01:03;;;;;;;10.30;2.85;;;15.40;99.90;;;;;;6216954;23;20004;-83
2022/11/07 19:03:28;;;;;;;11.45;2.00;;;15.40;99.90;;;;;;6193137;23;20035;-83
2022/11/07 19:05:59;;;;;;;9.77;2.65;;;15.40;99.90;;;;;;6219659;23;20000;-85
2022/11/07 19:08:29;;;;;;;9.88;2.50;;;15.40;99.90;;;;;;6169258;23;20114;-84
2022/11/07 19:10:56;;;;;;;14.15;2.65;;;15.40;99.90;;;;;;6194362;23;20305;-85
2022/11/07 19:13:22;;;;;;;10.88;2.80;;;15.40;99.90;;;;;;6217293;23;20130;-82
2022/11/07 19:15:48;;;;;;;8.50;2.10;;;15.40;99.90;;;;;;6189735;23;20012;-82
2022/11/07 19:18:14;;;;;;;10.13;2.08;;;15.30;99.90;;;;;;6164745;23;20450;-83
2022/11/07 19:20:40;;;;;;;14.98;2.80;;;15.30;99.90;;;;;;6189605;23;20364;-83
2022/11/07 19:23:06;;;;;;;8.43;2.20;;;15.20;99.90;;;;;;6164911;23;20005;-83
2022/11/07 19:25:31;;;;;;;11.60;2.35;;;15.20;99.90;;;;;;6189779;23;20005;-83
2022/11/07 19:27:57;;;;;;;11.20;2.53;;;15.20;99.90;;;;;;6164747;23;20305;-82
2022/11/07 19:30:23;;;;;;;7.95;2.40;;;15.20;99.90;;;;;;6217115;23;20449;-82
2022/11/07 19:32:50;;;;;;;15.70;2.67;;;15.10;99.90;;;;;;6206943;22;19992;-82
2022/11/07 19:35:18;;;;;;;8.43;2.13;;;15.10;99.90;;;;;;6238520;23;20011;-82
2022/11/07 19:37:43;;;;;;;8.85;2.30;;;15.20;99.90;;;;;;6185536;23;20017;-82
2022/11/07 19:40:10;;;;;;;11.55;3.05;;;15.10;99.90;;;;;;6208975;23;20076;-81
2022/11/07 19:42:35;;;;;;;9.48;2.20;;;15.10;99.90;;;;;;6234412;23;20001;-83
2022/11/07 19:45:01;;;;;;;9.20;2.35;;;15.20;99.90;;;;;;6205801;23;20004;-82
2022/11/07 19:47:28;;;;;;;7.90;2.45;;;15.20;99.90;;;;;;6170341;23;20004;-82
2022/11/07 19:49:54;;;;;;;10.93;2.60;;;15.20;99.90;;;;;;6189390;23;20431;-82
2022/11/07 19:52:23;;;;;;;7.72;2.40;;;15.20;99.90;;;;;;6189673;23;20005;-84
2022/11/07 19:54:50;;;;;;;12.88;2.80;;;15.20;99.90;;;;;;6189533;23;20317;-83
2022/11/07 19:57:16;;;;;;;12.23;2.92;;;15.20;99.90;;;;;;6164833;23;20344;-83
2022/11/07 19:59:42;;;;;;;11.75;2.60;;;15.20;99.90;;;;;;6216102;23;20011;-83
2022/11/07 20:02:12;;;;;;;11.80;2.80;;;15.20;99.90;;;;;;6164518;23;20013;-83
2022/11/07 20:04:38;;;;;;;12.38;3.25;;;15.20;99.90;;;;;;6164649;23;20001;-85
2022/11/07 20:07:04;;;;;;;10.65;2.50;;;15.20;99.90;;;;;;6215850;23;19997;-85
2022/11/07 20:09:30;;;;;;;8.18;2.05;;;15.20;99.90;;;;;;6164514;23;20455;-85
2022/11/07 20:11:55;;;;;;;11.98;2.30;;;15.20;99.90;;;;;;6164721;23;20008;-85
2022/11/07 20:14:21;;;;;;;14.27;3.15;;;15.10;99.90;;;;;;6164855;23;20013;-85
2022/11/07 20:16:47;;;;;;;10.75;2.53;;;15.10;99.90;;;;;;6189433;23;20371;-86
2022/11/07 20:19:50;;;;;;;11.43;2.63;;;15.10;99.90;;;;;;6215824;23;20051;-86
2022/11/07 20:22:16;;;;;;;8.40;2.47;;;15.00;99.90;;;;;;6189159;23;20008;-82
2022/11/07 20:24:41;;;;;;;11.02;2.25;;;15.00;99.90;;;;;;6189253;23;20004;-82
2022/11/07 20:27:07;;;;;;;13.57;2.28;;;15.00;99.90;;;;;;6164519;23;20465;-83
2022/11/07 20:29:33;;;;;;;9.68;2.38;;;15.00;99.90;;;;;;6189255;23;20009;-83
2022/11/07 20:31:58;;;;;;;9.75;2.50;;;14.90;99.90;;;;;;6190401;23;20043;-83
2022/11/07 20:34:24;;;;;;;12.02;2.00;;;14.90;99.90;;;;;;6164727;23;20016;-82
2022/11/07 20:36:52;;;;;;;10.82;2.63;;;14.90;99.90;;;;;;6189766;23;20011;-81
2022/11/07 20:39:52;;;;;;;8.60;2.75;;;14.90;99.90;;;;;;6189590;23;20074;-81
2022/11/07 20:42:18;;;;;;;7.70;1.92;;;14.90;99.90;;;;;;6190098;23;20008;-80
2022/11/07 20:44:44;;;;;;;12.10;2.78;;;14.90;99.90;;;;;;6164428;23;20015;-81
2022/11/07 20:47:11;;;;;;;13.13;2.75;;;14.90;99.90;;;;;;6215416;23;20008;-81
2022/11/07 20:49:37;;;;;;;10.02;2.05;;;14.80;99.90;;;;;;6188956;23;20013;-81
2022/11/07 20:52:05;;;;;;;12.13;2.10;;;14.90;99.90;;;;;;6189005;23;20317;-80
2022/11/07 20:54:32;;;;;;;11.07;2.95;;;14.90;99.90;;;;;;6192593;23;20004;-83
2022/11/07 20:56:58;;;;;;;11.15;2.35;;;14.80;99.90;;;;;;6200382;23;20332;-83
2022/11/07 20:59:23;;;;;;;13.02;2.45;;;14.90;99.90;;;;;;6198573;23;20064;-83
2022/11/07 21:01:49;;;;;;;8.65;2.10;;;14.90;99.90;;;;;;6193100;23;20008;-83
2022/11/07 21:04:16;;;;;;;9.52;2.13;;;14.90;99.90;;;;;;6192860;23;20005;-83
2022/11/07 21:06:42;;;;;;;10.63;2.97;;;14.90;99.90;;;;;;6193490;23;20008;-82
2022/11/07 21:09:07;;;;;;;14.43;4.25;;;14.90;99.90;;;;;;6176430;23;20001;-84
2022/11/07 21:11:33;;;;;;;7.97;2.08;;;14.90;99.90;;;;;;6192588;23;20032;-82
2022/11/07 21:14:00;;;;;;;10.50;2.28;;;14.90;99.90;;;;;;6166456;23;20016;-84
2022/11/07 21:16:26;;;;;;;13.32;2.85;;;14.90;99.90;;;;;;6191375;23;20070;-82
2022/11/07 21:18:53;;;;;;;12.65;2.55;;;14.90;99.90;;;;;;6190961;23;20012;-82
2022/11/07 21:21:22;;;;;;;10.15;2.40;;;14.90;99.90;;;;;;6191385;23;20039;-83
2022/11/07 21:23:48;;;;;;;10.00;2.75;;;14.90;99.90;;;;;;6191208;23;20424;-83
2022/11/07 21:26:17;;;;;;;9.82;2.58;;;14.90;99.90;;;;;;6190891;23;20005;-84
2022/11/07 21:28:42;;;;;;;7.47;2.33;;;14.90;99.90;;;;;;6217489;23;20024;-83
2022/11/07 21:31:12;;;;;;;10.77;2.38;;;14.90;99.90;;;;;;6165910;23;20108;-83
2022/11/07 21:33:41;;;;;;;12.82;2.45;;;14.90;99.90;;;;;;6217865;23;20035;-83
2022/11/07 21:36:11;;;;;;;15.02;2.83;;;15.00;99.90;;;;;;6190633;23;20001;-82
2022/11/07 21:38:37;;;;;;;10.75;2.83;;;15.00;99.90;;;;;;6217189;23;20102;-83
2022/11/07 21:44:25;;;;;;;14.93;2.50;;;15.00;99.90;;;;;;6217594;23;20008;-85
2022/11/07 21:46:51;;;;;;;11.52;2.40;;;15.00;99.90;;;;;;6190848;23;20001;-86
2022/11/07 21:49:16;;;;;;;10.27;2.10;;;15.00;99.90;;;;;;6190723;23;20309;-86
2022/11/07 21:51:42;;;;;;;13.65;2.78;;;15.00;99.90;;;;;;6166012;23;20058;-86
2022/11/07 21:54:09;;;;;;;9.15;2.72;;;15.00;99.90;;;;;;6217421;23;20005;-86
2022/11/07 21:56:36;;;;;;;8.88;2.28;;;15.00;99.90;;;;;;6190355;23;20478;-86
2022/11/07 21:59:05;;;;;;;12.45;2.20;;;15.00;99.90;;;;;;6190517;23;20043;-85
2022/11/07 22:01:33;;;;;;;12.38;2.05;;;15.00;99.90;;;;;;6217636;23;20327;-83
2022/11/07 22:04:00;;;;;;;10.95;2.38;;;15.00;99.90;;;;;;6190798;23;20012;-83
2022/11/07 22:06:27;;;;;;;14.02;2.92;;;15.00;99.90;;;;;;6217194;23;20005;-83
2022/11/07 22:08:52;;;;;;;11.30;2.58;;;15.00;99.90;;;;;;6217235;23;20072;-82
2022/11/07 22:11:19;;;;;;;12.38;2.42;;;15.00;99.90;;;;;;6217275;23;20005;-82
2022/11/07 22:13:48;;;;;;;16.42;2.53;;;15.00;99.90;;;;;;6190636;23;20008;-82
2022/11/07 22:16:19;;;;;;;10.35;2.15;;;15.00;99.90;;;;;;6191905;23;20004;-80
2022/11/07 22:18:46;;;;;;;12.50;2.60;;;15.00;99.90;;;;;;6196828;23;20001;-81
2022/11/07 22:21:14;;;;;;;13.38;2.20;;;15.00;99.90;;;;;;6201837;23;20017;-82
2022/11/07 22:23:40;;;;;;;8.23;2.20;;;15.00;99.90;;;;;;6204141;23;20060;-82
2022/11/07 22:26:12;;;;;;;7.32;1.88;;;15.00;99.90;;;;;;6204699;23;20026;-82
2022/11/07 22:28:38;;;;;;;12.18;2.33;;;15.00;99.90;;;;;;6230305;23;19997;-81
2022/11/07 22:31:09;;;;;;;11.95;2.40;;;14.90;99.90;;;;;;6228721;23;20428;-81
2022/11/07 22:33:36;;;;;;;8.70;2.10;;;15.00;99.90;;;;;;6196077;23;20004;-81
2022/11/07 22:36:03;;;;;;;8.80;2.38;;;15.00;99.90;;;;;;6190331;23;20344;-82
2022/11/07 22:38:31;;;;;;;12.00;2.13;;;15.00;99.90;;;;;;6180040;22;20077;-86
2022/11/07 22:40:57;;;;;;;10.82;2.17;;;15.00;99.90;;;;;;6215108;23;20340;-85
2022/11/07 22:43:24;;;;;;;11.25;2.15;;;15.00;99.90;;;;;;6165813;23;20067;-85
2022/11/07 22:45:50;;;;;;;11.30;2.88;;;15.00;99.90;;;;;;6190218;23;20004;-86
2022/11/07 22:48:16;;;;;;;11.38;2.60;;;15.00;99.90;;;;;;6190986;23;20043;-85
2022/11/07 22:50:43;;;;;;;8.25;2.20;;;14.90;99.90;;;;;;6165333;23;20040;-83
2022/11/07 22:53:12;;;;;;;9.80;2.25;;;14.90;99.90;;;;;;6190179;23;20047;-82
2022/11/07 22:55:38;;;;;;;9.07;2.50;;;14.90;99.90;;;;;;6165335;23;20359;-83
2022/11/07 22:58:05;;;;;;;11.60;2.75;;;14.90;99.90;;;;;;6165176;23;20096;-83
2022/11/07 23:00:32;;;;;;;11.10;2.38;;;14.90;99.90;;;;;;6190672;23;20004;-83
2022/11/07 23:02:58;;;;;;;9.48;2.38;;;14.90;99.90;;;;;;6189727;23;20494;-83
2022/11/07 23:05:24;;;;;;;13.27;2.65;;;14.90;99.90;;;;;;6216524;23;20004;-82
2022/11/07 23:07:52;;;;;;;9.52;2.03;;;14.90;99.90;;;;;;6189926;23;20004;-82
2022/11/07 23:10:19;;;;;;;11.82;1.98;;;14.90;99.90;;;;;;6189620;23;20439;-81
2022/11/07 23:12:45;;;;;;;9.32;2.00;;;14.90;99.90;;;;;;6189795;23;20336;-82
2022/11/07 23:15:10;;;;;;;10.80;2.08;;;14.90;99.90;;;;;;6164925;23;20007;-82
2022/11/07 23:17:37;;;;;;;10.55;2.00;;;14.90;99.90;;;;;;6164991;23;20036;-82
2022/11/07 23:20:05;;;;;;;7.15;3.03;;;14.90;99.90;;;;;;6189599;23;20009;-82
2022/11/07 23:22:30;;;;;;;10.82;2.53;;;14.80;99.90;;;;;;6189553;23;20009;-82
2022/11/07 23:24:56;;;;;;;9.00;2.20;;;14.80;99.90;;;;;;6189817;23;20035;-86
2022/11/07 23:30:43;;;;;;;12.13;2.33;;;14.80;99.90;;;;;;6216806;23;20115;-85
2022/11/07 23:33:09;;;;;;;8.48;2.22;;;14.80;99.90;;;;;;6165140;23;20013;-86
2022/11/07 23:35:35;;;;;;;9.57;2.20;;;14.80;99.90;;;;;;6164869;23;20421;-86
2022/11/07 23:38:00;;;;;;;12.80;2.80;;;14.70;99.90;;;;;;6165101;23;20012;-86
2022/11/07 23:40:26;;;;;;;10.68;2.22;;;14.80;99.90;;;;;;6159816;23;20017;-83
2022/11/07 23:42:52;;;;;;;9.90;2.13;;;14.70;99.90;;;;;;6184661;23;20010;-82
2022/11/07 23:51:03;;;;;;;11.52;2.38;;;14.60;99.90;;;;;;6185243;23;20092;-82
2022/11/07 23:56:18;;;;;;;7.82;1.95;;;14.50;99.90;;;;;;6186451;23;20024;-82
